Galeton, Colorado
Current Conditions -  °F | °C
As of 6:35 PM on Tuesday 21 Oct 2014 (Local Time) from KGXY Reporting Station
Clear Clear  
Wind Chill: 66°   Ceiling: Unl
Heat Index: 66°   Visibility: 10mi
Dew Point: 37°   Wind: 13mph
Humidity: 35%   Direction: 340°NNW
Pressure: 29.89"   Gusts: NA
Location:  40.52°N, 104.59°W
Report Text: KGXY 220035Z AUTO 34011KT 10SM CLR 19/03 A2989 RMK AO1
Loading
Personal Weather Stations






























Interactive Weather Map
Tropical Storm Tracking
New forecast layout! Learn more

10-Day Weather Forecast

Advertisements
Track Severe Weather on mobile